sensor_id;sensor_type;location;lat;lon;timestamp;pressure;altitude;pressure_sealevel;temperature;humidity
11487;BME280;10510;47.942;9.442;2024-01-06T00:01:05;93353.22;;;3.50;100.00
11487;BME280;10510;47.942;9.442;2024-01-06T00:03:05;93354.19;;;3.49;100.00
11487;BME280;10510;47.942;9.442;2024-01-06T00:05:06;93352.25;;;3.51;100.00
11487;BME280;10510;47.942;9.442;2024-01-06T00:07:06;93353.03;;;3.52;100.00
11487;BME280;10510;47.942;9.442;2024-01-06T00:09:06;93361.78;;;3.51;100.00
11487;BME280;10510;47.942;9.442;2024-01-06T00:11:07;93361.47;;;3.46;100.00
11487;BME280;10510;47.942;9.442;2024-01-06T00:13:07;93351.66;;;3.41;100.00
11487;BME280;10510;47.942;9.442;2024-01-06T00:15:08;93351.03;;;3.39;100.00
11487;BME280;10510;47.942;9.442;2024-01-06T00:17:08;93351.81;;;3.39;100.00
11487;BME280;10510;47.942;9.442;2024-01-06T00:19:08;93356.34;;;3.37;100.00
11487;BME280;10510;47.942;9.442;2024-01-06T00:21:09;93347.16;;;3.35;100.00
11487;BME280;10510;47.942;9.442;2024-01-06T00:23:09;93350.72;;;3.34;100.00
11487;BME280;10510;47.942;9.442;2024-01-06T00:25:09;93354.28;;;3.33;100.00
11487;BME280;10510;47.942;9.442;2024-01-06T00:27:10;93357.84;;;3.32;100.00
11487;BME280;10510;47.942;9.442;2024-01-06T00:29:10;93358.63;;;3.32;100.00
11487;BME280;10510;47.942;9.442;2024-01-06T00:31:10;93348.31;;;3.32;100.00
11487;BME280;10510;47.942;9.442;2024-01-06T00:33:12;93346.38;;;3.34;100.00
11487;BME280;10510;47.942;9.442;2024-01-06T00:35:12;93345.22;;;3.37;100.00
11487;BME280;10510;47.942;9.442;2024-01-06T00:37:12;93353.63;;;3.39;100.00
11487;BME280;10510;47.942;9.442;2024-01-06T00:39:13;93357.97;;;3.38;100.00
11487;BME280;10510;47.942;9.442;2024-01-06T00:41:13;93357.97;;;3.38;100.00
11487;BME280;10510;47.942;9.442;2024-01-06T00:43:14;93353.78;;;3.37;100.00
11487;BME280;10510;47.942;9.442;2024-01-06T00:45:14;93360.56;;;3.38;100.00
11487;BME280;10510;47.942;9.442;2024-01-06T00:47:14;93362.16;;;3.39;100.00
11487;BME280;10510;47.942;9.442;2024-01-06T00:49:15;93362.16;;;3.39;100.00
11487;BME280;10510;47.942;9.442;2024-01-06T00:51:15;93351.81;;;3.39;100.00
11487;BME280;10510;47.942;9.442;2024-01-06T00:53:15;93366.34;;;3.40;100.00
11487;BME280;10510;47.942;9.442;2024-01-06T00:55:16;93361.38;;;3.39;100.00
11487;BME280;10510;47.942;9.442;2024-01-06T00:57:16;93367.31;;;3.39;100.00
11487;BME280;10510;47.942;9.442;2024-01-06T00:59:16;93365.38;;;3.41;100.00
11487;BME280;10510;47.942;9.442;2024-01-06T01:01:16;93362.47;;;3.45;100.00
11487;BME280;10510;47.942;9.442;2024-01-06T01:03:17;93371.97;;;3.44;100.00
11487;BME280;10510;47.942;9.442;2024-01-06T01:05:17;93372.31;;;3.41;100.00
11487;BME280;10510;47.942;9.442;2024-01-06T01:07:17;93364.28;;;3.36;100.00
11487;BME280;10510;47.942;9.442;2024-01-06T01:09:18;93378.97;;;3.35;100.00
11487;BME280;10510;47.942;9.442;2024-01-06T01:11:19;93372.84;;;3.36;100.00
11487;BME280;10510;47.942;9.442;2024-01-06T01:13:19;93379.78;;;3.36;100.00
11487;BME280;10510;47.942;9.442;2024-01-06T01:15:19;93378.16;;;3.35;100.00
11487;BME280;10510;47.942;9.442;2024-01-06T01:17:20;93383.31;;;3.35;100.00
11487;BME280;10510;47.942;9.442;2024-01-06T01:19:20;93378.16;;;3.35;100.00
11487;BME280;10510;47.942;9.442;2024-01-06T01:21:20;93384.47;;;3.32;100.00
11487;BME280;10510;47.942;9.442;2024-01-06T01:23:20;93382.22;;;3.29;100.00
11487;BME280;10510;47.942;9.442;2024-01-06T01:25:21;93390.94;;;3.28;100.00
11487;BME280;10510;47.942;9.442;2024-01-06T01:27:21;93396.31;;;3.27;100.00
11487;BME280;10510;47.942;9.442;2024-01-06T01:29:21;93397.44;;;3.24;100.00
11487;BME280;10510;47.942;9.442;2024-01-06T01:31:22;93396.63;;;3.24;100.00
11487;BME280;10510;47.942;9.442;2024-01-06T01:33:22;93402.59;;;3.24;100.00
11487;BME280;10510;47.942;9.442;2024-01-06T01:35:22;93397.44;;;3.24;100.00
11487;BME280;10510;47.942;9.442;2024-01-06T01:37:22;93393.06;;;3.25;100.00
11487;BME280;10510;47.942;9.442;2024-01-06T01:39:23;93404.19;;;3.25;100.00
11487;BME280;10510;47.942;9.442;2024-01-06T01:41:24;93405.97;;;3.25;100.00
11487;BME280;10510;47.942;9.442;2024-01-06T01:43:24;93412.94;;;3.24;100.00
11487;BME280;10510;47.942;9.442;2024-01-06T01:45:25;93416.00;;;3.19;100.00
11487;BME280;10510;47.942;9.442;2024-01-06T01:47:26;93419.22;;;3.22;100.00
11487;BME280;10510;47.942;9.442;2024-01-06T01:49:26;93423.41;;;3.23;100.00
11487;BME280;10510;47.942;9.442;2024-01-06T01:51:33;93430.69;;;3.19;100.00
11487;BME280;10510;47.942;9.442;2024-01-06T01:53:34;93425.69;;;3.17;100.00
11487;BME280;10510;47.942;9.442;2024-01-06T01:55:34;93427.13;;;3.20;100.00
11487;BME280;10510;47.942;9.442;2024-01-06T01:57:35;93433.09;;;3.21;100.00
11487;BME280;10510;47.942;9.442;2024-01-06T01:59:35;93428.75;;;3.21;100.00
11487;BME280;10510;47.942;9.442;2024-01-06T02:01:36;93433.28;;;3.19;100.00
11487;BME280;10510;47.942;9.442;2024-01-06T02:03:36;93440.03;;;3.20;100.00
11487;BME280;10510;47.942;9.442;2024-01-06T02:05:37;93438.25;;;3.21;100.00
11487;BME280;10510;47.942;9.442;2024-01-06T02:07:37;93443.59;;;3.19;100.00
11487;BME280;10510;47.942;9.442;2024-01-06T02:09:38;93442.16;;;3.16;100.00
11487;BME280;10510;47.942;9.442;2024-01-06T02:11:38;93439.91;;;3.13;100.00
11487;BME280;10510;47.942;9.442;2024-01-06T02:13:38;93445.06;;;3.13;100.00
11487;BME280;10510;47.942;9.442;2024-01-06T02:15:39;93443.47;;;3.12;100.00
11487;BME280;10510;47.942;9.442;2024-01-06T02:17:39;93445.41;;;3.10;100.00
11487;BME280;10510;47.942;9.442;2024-01-06T02:19:40;93444.28;;;3.13;100.00
11487;BME280;10510;47.942;9.442;2024-01-06T02:21:42;93450.88;;;3.15;100.00
11487;BME280;10510;47.942;9.442;2024-01-06T02:23:42;93443.75;;;3.17;100.00
11487;BME280;10510;47.942;9.442;2024-01-06T02:25:42;93437.34;;;3.13;100.00
11487;BME280;10510;47.942;9.442;2024-01-06T02:27:43;93437.81;;;3.09;100.00
11487;BME280;10510;47.942;9.442;2024-01-06T02:29:43;93442.38;;;3.07;100.00
11487;BME280;10510;47.942;9.442;2024-01-06T02:31:43;93438.34;;;3.04;100.00
11487;BME280;10510;47.942;9.442;2024-01-06T02:33:44;93439.47;;;3.02;100.00
11487;BME280;10510;47.942;9.442;2024-01-06T02:35:47;93440.59;;;2.99;100.00
11487;BME280;10510;47.942;9.442;2024-01-06T02:37:47;93442.53;;;2.97;100.00
11487;BME280;10510;47.942;9.442;2024-01-06T02:39:47;93446.75;;;2.98;100.00
11487;BME280;10510;47.942;9.442;2024-01-06T02:41:48;93444.50;;;2.95;100.00
11487;BME280;10510;47.942;9.442;2024-01-06T02:43:48;93442.06;;;2.93;100.00
11487;BME280;10510;47.942;9.442;2024-01-06T02:45:48;93450.00;;;2.92;100.00
11487;BME280;10510;47.942;9.442;2024-01-06T02:47:49;93448.53;;;2.89;100.00
11487;BME280;10510;47.942;9.442;2024-01-06T02:49:49;93447.75;;;2.89;100.00
11487;BME280;10510;47.942;9.442;2024-01-06T02:51:49;93443.53;;;2.88;100.00
11487;BME280;10510;47.942;9.442;2024-01-06T02:53:50;93452.25;;;2.87;100.00
11487;BME280;10510;47.942;9.442;2024-01-06T02:55:50;93453.22;;;2.86;100.00
11487;BME280;10510;47.942;9.442;2024-01-06T02:57:50;93451.44;;;2.86;100.00
11487;BME280;10510;47.942;9.442;2024-01-06T02:59:50;93452.41;;;2.85;100.00
11487;BME280;10510;47.942;9.442;2024-01-06T03:01:51;93457.75;;;2.84;100.00
11487;BME280;10510;47.942;9.442;2024-01-06T03:03:51;93453.56;;;2.83;100.00
11487;BME280;10510;47.942;9.442;2024-01-06T03:05:51;93457.28;;;2.80;100.00
11487;BME280;10510;47.942;9.442;2024-01-06T03:07:51;93460.97;;;2.78;100.00
11487;BME280;10510;47.942;9.442;2024-01-06T03:09:52;93463.09;;;2.74;100.00
11487;BME280;10510;47.942;9.442;2024-01-06T03:11:52;93466.47;;;2.66;100.00
11487;BME280;10510;47.942;9.442;2024-01-06T03:13:52;93465.88;;;2.56;100.00
11487;BME280;10510;47.942;9.442;2024-01-06T03:15:52;93468.25;;;2.49;100.00
11487;BME280;10510;47.942;9.442;2024-01-06T03:17:53;93470.69;;;2.43;100.00
11487;BME280;10510;47.942;9.442;2024-01-06T03:19:53;93468.63;;;2.38;100.00
11487;BME280;10510;47.942;9.442;2024-01-06T03:21:53;93472.47;;;2.34;100.00
11487;BME280;10510;47.942;9.442;2024-01-06T03:23:53;93470.88;;;2.33;100.00
11487;BME280;10510;47.942;9.442;2024-01-06T03:25:55;93466.84;;;2.31;100.00
11487;BME280;10510;47.942;9.442;2024-01-06T03:27:55;93468.75;;;2.28;100.00
11487;BME280;10510;47.942;9.442;2024-01-06T03:29:55;93467.16;;;2.27;100.00
11487;BME280;10510;47.942;9.442;2024-01-06T03:31:56;93465.69;;;2.25;100.00
11487;BME280;10510;47.942;9.442;2024-01-06T03:33:56;93474.56;;;2.22;100.00
11487;BME280;10510;47.942;9.442;2024-01-06T03:35:56;93465.88;;;2.15;100.00
11487;BME280;10510;47.942;9.442;2024-01-06T03:37:56;93470.38;;;2.13;100.00
11487;BME280;10510;47.942;9.442;2024-01-06T03:39:57;93475.53;;;2.13;100.00
11487;BME280;10510;47.942;9.442;2024-01-06T03:41:57;93467.31;;;2.10;100.00
11487;BME280;10510;47.942;9.442;2024-01-06T03:43:57;93470.22;;;2.07;100.00
11487;BME280;10510;47.942;9.442;2024-01-06T03:45:58;93468.59;;;2.05;100.00
11487;BME280;10510;47.942;9.442;2024-01-06T03:48:00;93468.75;;;2.04;100.00
11487;BME280;10510;47.942;9.442;2024-01-06T03:50:00;93480.19;;;2.01;100.00
11487;BME280;10510;47.942;9.442;2024-01-06T03:52:01;93473.56;;;1.99;100.00
11487;BME280;10510;47.942;9.442;2024-01-06T03:54:01;93472.78;;;1.98;100.00
11487;BME280;10510;47.942;9.442;2024-01-06T03:56:03;93477.13;;;1.98;100.00
11487;BME280;10510;47.942;9.442;2024-01-06T03:58:03;93476.81;;;2.01;100.00
11487;BME280;10510;47.942;9.442;2024-01-06T04:00:05;93478.59;;;2.00;100.00
11487;BME280;10510;47.942;9.442;2024-01-06T04:02:06;93477.13;;;1.98;100.00
11487;BME280;10510;47.942;9.442;2024-01-06T04:04:06;93476.47;;;1.96;100.00
11487;BME280;10510;47.942;9.442;2024-01-06T04:06:07;93472.91;;;1.97;100.00
11487;BME280;10510;47.942;9.442;2024-01-06T04:08:07;93477.44;;;1.95;100.00
11487;BME280;10510;47.942;9.442;2024-01-06T04:10:08;93481.94;;;1.93;100.00
11487;BME280;10510;47.942;9.442;2024-01-06T04:12:08;93490.47;;;1.93;100.00
11487;BME280;10510;47.942;9.442;2024-01-06T04:14:09;93493.84;;;1.94;100.00
11487;BME280;10510;47.942;9.442;2024-01-06T04:16:09;93493.84;;;1.94;100.00
11487;BME280;10510;47.942;9.442;2024-01-06T04:18:09;93490.97;;;1.97;100.00
11487;BME280;10510;47.942;9.442;2024-01-06T04:20:10;93488.56;;;1.95;100.00
11487;BME280;10510;47.942;9.442;2024-01-06T04:22:12;93497.25;;;1.94;100.00
11487;BME280;10510;47.942;9.442;2024-01-06T04:24:13;93493.84;;;1.94;100.00
11487;BME280;10510;47.942;9.442;2024-01-06T04:26:13;93495.81;;;1.92;100.00
11487;BME280;10510;47.942;9.442;2024-01-06T04:28:13;93497.59;;;1.91;100.00
11487;BME280;10510;47.942;9.442;2024-01-06T04:30:14;93499.97;;;1.93;100.00
11487;BME280;10510;47.942;9.442;2024-01-06T04:32:14;93505.13;;;1.93;100.00
11487;BME280;10510;47.942;9.442;2024-01-06T04:34:15;93502.72;;;1.91;100.00
11487;BME280;10510;47.942;9.442;2024-01-06T04:36:15;93499.19;;;1.92;100.00
11487;BME280;10510;47.942;9.442;2024-01-06T04:38:15;93506.25;;;1.90;100.00
11487;BME280;10510;47.942;9.442;2024-01-06T04:40:16;93504.78;;;1.88;100.00
11487;BME280;10510;47.942;9.442;2024-01-06T04:42:16;93510.94;;;1.87;100.00
11487;BME280;10510;47.942;9.442;2024-01-06T04:44:20;93505.59;;;1.88;100.00
11487;BME280;10510;47.942;9.442;2024-01-06T04:46:21;93503.53;;;1.92;100.00
11487;BME280;10510;47.942;9.442;2024-01-06T04:48:21;93507.72;;;1.93;100.00
11487;BME280;10510;47.942;9.442;2024-01-06T04:50:21;93511.25;;;1.92;100.00
11487;BME280;10510;47.942;9.442;2024-01-06T04:52:22;93523.19;;;1.93;100.00
11487;BME280;10510;47.942;9.442;2024-01-06T04:54:22;93515.63;;;1.91;100.00
11487;BME280;10510;47.942;9.442;2024-01-06T04:56:22;93519.94;;;1.91;100.00
11487;BME280;10510;47.942;9.442;2024-01-06T04:58:22;93518.34;;;1.90;100.00
11487;BME280;10510;47.942;9.442;2024-01-06T05:00:23;93516.56;;;1.90;100.00
11487;BME280;10510;47.942;9.442;2024-01-06T05:02:23;93519.00;;;1.92;100.00
11487;BME280;10510;47.942;9.442;2024-01-06T05:04:24;93520.59;;;1.93;100.00
11487;BME280;10510;47.942;9.442;2024-01-06T05:06:25;93520.59;;;1.93;100.00
11487;BME280;10510;47.942;9.442;2024-01-06T05:08:25;93524.16;;;1.92;100.00
11487;BME280;10510;47.942;9.442;2024-01-06T05:10:25;93526.06;;;1.90;100.00
11487;BME280;10510;47.942;9.442;2024-01-06T05:12:25;93525.28;;;1.89;100.00
11487;BME280;10510;47.942;9.442;2024-01-06T05:14:26;93527.84;;;1.89;100.00
11487;BME280;10510;47.942;9.442;2024-01-06T05:16:26;93530.41;;;1.89;100.00
11487;BME280;10510;47.942;9.442;2024-01-06T05:18:27;93527.84;;;1.89;100.00
11487;BME280;10510;47.942;9.442;2024-01-06T05:20:27;93526.38;;;1.87;100.00
11487;BME280;10510;47.942;9.442;2024-01-06T05:22:28;93531.53;;;1.87;100.00
11487;BME280;10510;47.942;9.442;2024-01-06T05:24:28;93526.22;;;1.88;100.00
11487;BME280;10510;47.942;9.442;2024-01-06T05:26:28;93528.78;;;1.88;100.00
11487;BME280;10510;47.942;9.442;2024-01-06T05:28:29;93529.63;;;1.89;100.00
11487;BME280;10510;47.942;9.442;2024-01-06T05:30:29;93521.72;;;1.90;100.00
11487;BME280;10510;47.942;9.442;2024-01-06T05:32:29;93519.13;;;1.90;100.00
11487;BME280;10510;47.942;9.442;2024-01-06T05:34:29;93526.06;;;1.90;100.00
11487;BME280;10510;47.942;9.442;2024-01-06T05:36:30;93533.81;;;1.90;100.00
11487;BME280;10510;47.942;9.442;2024-01-06T05:38:30;93530.56;;;1.88;100.00
11487;BME280;10510;47.942;9.442;2024-01-06T05:40:30;93536.69;;;1.87;100.00
11487;BME280;10510;47.942;9.442;2024-01-06T05:42:30;93532.34;;;1.87;100.00
11487;BME280;10510;47.942;9.442;2024-01-06T05:44:31;93534.13;;;1.87;100.00
11487;BME280;10510;47.942;9.442;2024-01-06T05:46:31;93536.53;;;1.88;100.00
11487;BME280;10510;47.942;9.442;2024-01-06T05:48:31;93537.19;;;1.90;100.00
11487;BME280;10510;47.942;9.442;2024-01-06T05:50:31;93539.63;;;1.92;100.00
11487;BME280;10510;47.942;9.442;2024-01-06T05:52:32;93540.56;;;1.91;100.00
11487;BME280;10510;47.942;9.442;2024-01-06T05:54:32;93548.59;;;1.88;100.00
11487;BME280;10510;47.942;9.442;2024-01-06T05:56:32;93540.88;;;1.88;100.00
11487;BME280;10510;47.942;9.442;2024-01-06T05:58:33;93544.09;;;1.90;100.00
11487;BME280;10510;47.942;9.442;2024-01-06T06:00:33;93543.00;;;1.92;100.00
11487;BME280;10510;47.942;9.442;2024-01-06T06:02:33;93551.38;;;1.94;100.00
11487;BME280;10510;47.942;9.442;2024-01-06T06:04:34;93547.97;;;1.94;100.00
11487;BME280;10510;47.942;9.442;2024-01-06T06:06:34;93559.13;;;1.94;100.00
11487;BME280;10510;47.942;9.442;2024-01-06T06:08:35;93565.38;;;1.92;100.00
11487;BME280;10510;47.942;9.442;2024-01-06T06:10:35;93566.50;;;1.89;100.00
11487;BME280;10510;47.942;9.442;2024-01-06T06:12:51;93566.63;;;1.88;100.00
11487;BME280;10510;47.942;9.442;2024-01-06T06:14:51;93567.63;;;1.87;100.00
11487;BME280;10510;47.942;9.442;2024-01-06T06:16:52;93576.16;;;1.87;100.00
11487;BME280;10510;47.942;9.442;2024-01-06T06:18:52;93581.16;;;1.89;100.00
11487;BME280;10510;47.942;9.442;2024-01-06T06:20:52;93585.34;;;1.90;100.00
11487;BME280;10510;47.942;9.442;2024-01-06T06:22:52;93586.94;;;1.91;100.00
11487;BME280;10510;47.942;9.442;2024-01-06T06:24:53;93590.34;;;1.91;100.00
11487;BME280;10510;47.942;9.442;2024-01-06T06:26:53;93586.00;;;1.92;100.00
11487;BME280;10510;47.942;9.442;2024-01-06T06:28:53;93581.78;;;1.91;100.00
11487;BME280;10510;47.942;9.442;2024-01-06T06:30:54;93585.47;;;1.88;100.00
11487;BME280;10510;47.942;9.442;2024-01-06T06:32:54;93582.28;;;1.86;100.00
11487;BME280;10510;47.942;9.442;2024-01-06T06:34:54;93585.78;;;1.85;100.00
11487;BME280;10510;47.942;9.442;2024-01-06T06:36:54;93584.38;;;1.83;100.00
11487;BME280;10510;47.942;9.442;2024-01-06T06:38:55;93580.00;;;1.83;100.00
11487;BME280;10510;47.942;9.442;2024-01-06T06:40:58;93584.19;;;1.84;100.00
11487;BME280;10510;47.942;9.442;2024-01-06T06:42:58;93584.19;;;1.84;100.00
11487;BME280;10510;47.942;9.442;2024-01-06T06:44:58;93584.19;;;1.84;100.00
11487;BME280;10510;47.942;9.442;2024-01-06T06:46:58;93585.78;;;1.85;100.00
11487;BME280;10510;47.942;9.442;2024-01-06T06:48:59;93587.56;;;1.85;100.00
11487;BME280;10510;47.942;9.442;2024-01-06T06:50:59;93590.16;;;1.85;100.00
11487;BME280;10510;47.942;9.442;2024-01-06T06:52:59;93588.38;;;1.85;100.00
11487;BME280;10510;47.942;9.442;2024-01-06T06:55:01;93588.22;;;1.87;100.00
11487;BME280;10510;47.942;9.442;2024-01-06T06:57:01;93599.34;;;1.87;100.00
11487;BME280;10510;47.942;9.442;2024-01-06T06:59:01;93603.19;;;1.83;100.00
11487;BME280;10510;47.942;9.442;2024-01-06T07:01:02;93600.75;;;1.81;100.00
11487;BME280;10510;47.942;9.442;2024-01-06T07:03:02;93604.31;;;1.80;100.00
11487;BME280;10510;47.942;9.442;2024-01-06T07:05:03;93607.88;;;1.79;100.00
11487;BME280;10510;47.942;9.442;2024-01-06T07:07:04;93607.88;;;1.79;100.00
11487;BME280;10510;47.942;9.442;2024-01-06T07:09:04;93606.22;;;1.78;100.00
11487;BME280;10510;47.942;9.442;2024-01-06T07:11:05;93617.34;;;1.79;100.00
11487;BME280;10510;47.942;9.442;2024-01-06T07:13:05;93615.41;;;1.81;100.00
11487;BME280;10510;47.942;9.442;2024-01-06T07:15:06;93616.41;;;1.80;100.00
11487;BME280;10510;47.942;9.442;2024-01-06T07:17:06;93621.69;;;1.78;100.00
11487;BME280;10510;47.942;9.442;2024-01-06T07:19:06;93626.84;;;1.78;100.00
11487;BME280;10510;47.942;9.442;2024-01-06T07:21:07;93624.25;;;1.78;100.00
11487;BME280;10510;47.942;9.442;2024-01-06T07:23:07;93632.78;;;1.79;100.00
11487;BME280;10510;47.942;9.442;2024-01-06T07:25:08;93624.94;;;1.80;100.00
11487;BME280;10510;47.942;9.442;2024-01-06T07:27:08;93633.31;;;1.83;100.00
11487;BME280;10510;47.942;9.442;2024-01-06T07:29:08;93637.31;;;1.85;100.00
11487;BME280;10510;47.942;9.442;2024-01-06T07:31:09;93631.38;;;1.85;100.00
11487;BME280;10510;47.942;9.442;2024-01-06T07:33:09;93630.56;;;1.84;100.00
11487;BME280;10510;47.942;9.442;2024-01-06T07:35:11;93633.31;;;1.83;100.00
11487;BME280;10510;47.942;9.442;2024-01-06T07:37:11;93639.41;;;1.81;100.00
11487;BME280;10510;47.942;9.442;2024-01-06T07:39:12;93637.00;;;1.80;100.00
11487;BME280;10510;47.942;9.442;2024-01-06T07:41:12;93649.88;;;1.80;100.00
11487;BME280;10510;47.942;9.442;2024-01-06T07:43:12;93643.75;;;1.81;100.00
11487;BME280;10510;47.942;9.442;2024-01-06T07:45:13;93647.16;;;1.81;100.00
11487;BME280;10510;47.942;9.442;2024-01-06T07:47:13;93653.28;;;1.80;100.00
11487;BME280;10510;47.942;9.442;2024-01-06T07:49:14;93647.44;;;1.78;100.00
11487;BME280;10510;47.942;9.442;2024-01-06T07:51:15;93647.44;;;1.78;100.00
11487;BME280;10510;47.942;9.442;2024-01-06T07:53:16;93650.69;;;1.80;100.00
11487;BME280;10510;47.942;9.442;2024-01-06T07:55:17;93651.50;;;1.81;100.00
11487;BME280;10510;47.942;9.442;2024-01-06T07:57:17;93660.03;;;1.81;100.00
11487;BME280;10510;47.942;9.442;2024-01-06T07:59:17;93659.09;;;1.83;100.00
11487;BME280;10510;47.942;9.442;2024-01-06T08:01:18;93656.84;;;1.88;100.00
11487;BME280;10510;47.942;9.442;2024-01-06T08:03:18;93660.72;;;1.92;100.00
11487;BME280;10510;47.942;9.442;2024-01-06T08:05:19;93663.63;;;1.97;100.00
11487;BME280;10510;47.942;9.442;2024-01-06T08:07:19;93660.47;;;2.03;100.00
11487;BME280;10510;47.942;9.442;2024-01-06T08:09:19;93660.47;;;2.11;100.00
11487;BME280;10510;47.942;9.442;2024-01-06T08:11:20;93660.69;;;2.18;100.00
11487;BME280;10510;47.942;9.442;2024-01-06T08:13:20;93659.22;;;2.23;100.00
11487;BME280;10510;47.942;9.442;2024-01-06T08:15:20;93660.53;;;2.27;100.00
11487;BME280;10510;47.942;9.442;2024-01-06T08:17:20;93664.09;;;2.26;100.00
11487;BME280;10510;47.942;9.442;2024-01-06T08:19:21;93666.69;;;2.26;100.00
11487;BME280;10510;47.942;9.442;2024-01-06T08:21:21;93665.38;;;2.31;100.00
11487;BME280;10510;47.942;9.442;2024-01-06T08:23:21;93668.94;;;2.38;100.00
11487;BME280;10510;47.942;9.442;2024-01-06T08:25:21;93660.25;;;2.39;100.00
11487;BME280;10510;47.942;9.442;2024-01-06T08:27:22;93668.31;;;2.36;100.00
11487;BME280;10510;47.942;9.442;2024-01-06T08:29:23;93664.91;;;2.35;100.00
11487;BME280;10510;47.942;9.442;2024-01-06T08:31:24;93662.50;;;2.34;100.00
11487;BME280;10510;47.942;9.442;2024-01-06T08:33:24;93670.06;;;2.35;100.00
11487;BME280;10510;47.942;9.442;2024-01-06T08:35:24;93659.59;;;2.37;100.00
11487;BME280;10510;47.942;9.442;2024-01-06T08:37:25;93674.94;;;2.38;100.00
11487;BME280;10510;47.942;9.442;2024-01-06T08:39:25;93673.28;;;2.37;100.00
11487;BME280;10510;47.942;9.442;2024-01-06T08:41:26;93676.53;;;2.39;100.00
11487;BME280;10510;47.942;9.442;2024-01-06T08:43:27;93676.38;;;2.41;100.00
11487;BME280;10510;47.942;9.442;2024-01-06T08:45:27;93676.72;;;2.46;100.00
11487;BME280;10510;47.942;9.442;2024-01-06T08:47:27;93682.34;;;2.49;100.00
11487;BME280;10510;47.942;9.442;2024-01-06T08:49:28;93683.00;;;2.52;100.00
11487;BME280;10510;47.942;9.442;2024-01-06T08:51:28;93689.47;;;2.56;100.00
11487;BME280;10510;47.942;9.442;2024-01-06T08:53:28;93683.97;;;2.59;100.00
11487;BME280;10510;47.942;9.442;2024-01-06T08:55:29;93677.38;;;2.64;100.00
11487;BME280;10510;47.942;9.442;2024-01-06T08:57:29;93683.06;;;2.68;100.00
11487;BME280;10510;47.942;9.442;2024-01-06T08:59:29;93689.03;;;2.68;100.00
11487;BME280;10510;47.942;9.442;2024-01-06T09:01:30;93688.72;;;2.71;100.00
11487;BME280;10510;47.942;9.442;2024-01-06T09:03:31;93684.84;;;2.76;100.00
11487;BME280;10510;47.942;9.442;2024-01-06T09:05:31;93680.81;;;2.81;100.00
11487;BME280;10510;47.942;9.442;2024-01-06T09:07:33;93685.97;;;2.81;100.00
11487;BME280;10510;47.942;9.442;2024-01-06T09:09:34;93690.16;;;2.82;100.00
11487;BME280;10510;47.942;9.442;2024-01-06T09:11:34;93684.69;;;2.93;100.00
11487;BME280;10510;47.942;9.442;2024-01-06T09:13:35;93685.84;;;2.99;100.00
11487;BME280;10510;47.942;9.442;2024-01-06T09:15:35;93692.31;;;3.03;100.00
11487;BME280;10510;47.942;9.442;2024-01-06T09:17:36;93692.94;;;3.05;100.00
11487;BME280;10510;47.942;9.442;2024-01-06T09:19:36;93691.81;;;3.08;100.00
11487;BME280;10510;47.942;9.442;2024-01-06T09:21:36;93694.72;;;3.13;100.00
11487;BME280;10510;47.942;9.442;2024-01-06T09:23:36;93696.81;;;3.17;100.00
11487;BME280;10510;47.942;9.442;2024-01-06T09:25:37;93707.66;;;3.21;100.00
11487;BME280;10510;47.942;9.442;2024-01-06T09:27:37;93703.44;;;3.20;100.00
11487;BME280;10510;47.942;9.442;2024-01-06T09:29:37;93711.34;;;3.18;100.00
11487;BME280;10510;47.942;9.442;2024-01-06T09:31:38;93714.91;;;3.26;100.00
11487;BME280;10510;47.942;9.442;2024-01-06T09:33:38;93703.91;;;3.32;100.00
11487;BME280;10510;47.942;9.442;2024-01-06T09:35:39;93709.28;;;3.38;100.00
11487;BME280;10510;47.942;9.442;2024-01-06T09:37:39;93707.16;;;3.42;100.00
11487;BME280;10510;47.942;9.442;2024-01-06T09:39:40;93712.00;;;3.37;100.00
11487;BME280;10510;47.942;9.442;2024-01-06T09:41:40;93708.75;;;3.35;100.00
11487;BME280;10510;47.942;9.442;2024-01-06T09:43:41;93712.81;;;3.37;100.00
11487;BME280;10510;47.942;9.442;2024-01-06T09:45:42;93709.41;;;3.37;100.00
11487;BME280;10510;47.942;9.442;2024-01-06T09:47:48;93714.75;;;3.35;100.00
11487;BME280;10510;47.942;9.442;2024-01-06T09:49:49;93719.09;;;3.35;100.00
11487;BME280;10510;47.942;9.442;2024-01-06T09:51:51;93713.13;;;3.34;100.00
11487;BME280;10510;47.942;9.442;2024-01-06T09:54:01;93722.50;;;3.35;100.00
11487;BME280;10510;47.942;9.442;2024-01-06T09:56:04;93717.81;;;3.39;100.00
11487;BME280;10510;47.942;9.442;2024-01-06T09:58:05;93722.34;;;3.37;100.00
11487;BME280;10510;47.942;9.442;2024-01-06T10:00:10;93726.69;;;3.28;100.00
11487;BME280;10510;47.942;9.442;2024-01-06T10:02:14;93719.44;;;3.24;100.00
11487;BME280;10510;47.942;9.442;2024-01-06T10:04:14;93718.13;;;3.28;100.00
11487;BME280;10510;47.942;9.442;2024-01-06T10:06:16;93723.31;;;3.28;100.00
11487;BME280;10510;47.942;9.442;2024-01-06T10:08:17;93718.13;;;3.28;100.00
11487;BME280;10510;47.942;9.442;2024-01-06T10:10:18;93721.19;;;3.31;100.00
11487;BME280;10510;47.942;9.442;2024-01-06T10:12:23;93722.66;;;3.34;100.00
11487;BME280;10510;47.942;9.442;2024-01-06T10:14:24;93714.91;;;3.34;100.00
11487;BME280;10510;47.942;9.442;2024-01-06T10:16:24;93708.94;;;3.33;100.00
11487;BME280;10510;47.942;9.442;2024-01-06T10:18:25;93712.66;;;3.39;100.00
11487;BME280;10510;47.942;9.442;2024-01-06T10:20:29;93710.38;;;3.44;100.00
11487;BME280;10510;47.942;9.442;2024-01-06T10:22:30;93710.06;;;3.47;100.00
11487;BME280;10510;47.942;9.442;2024-01-06T10:24:30;93707.78;;;3.44;100.00
11487;BME280;10510;47.942;9.442;2024-01-06T10:26:31;93710.53;;;3.34;100.00
11487;BME280;10510;47.942;9.442;2024-01-06T10:28:31;93696.50;;;3.37;100.00
11487;BME280;10510;47.942;9.442;2024-01-06T10:30:32;93703.44;;;3.36;100.00
11487;BME280;10510;47.942;9.442;2024-01-06T10:32:33;93704.56;;;3.34;100.00
11487;BME280;10510;47.942;9.442;2024-01-06T10:34:34;93699.88;;;3.29;100.00
11487;BME280;10510;47.942;9.442;2024-01-06T10:36:36;93695.56;;;3.30;100.00
11487;BME280;10510;47.942;9.442;2024-01-06T10:38:37;93696.81;;;3.34;100.00